Time;durP1;ratioP1;P1;durP2;ratioP2;P2;SDS_P1;SDS_P2;PMS_P1;PMS_P2;Temp;Humidity;BMP_temperature;BMP_pressure;BME280_temperature;BME280_humidity;BME280_pressure;Samples;Min_cycle;Max_cycle;Signal;HPM_P1;HPM_P2
2022/03/22 00:01:24;;;;;;;;;;;;;;;6.64;31.92;101931.31;4442770;32;19981;-71
2022/03/22 00:03:51;;;;;;;;;;;;;;;6.72;31.01;101933.56;4439798;32;19973;-71
2022/03/22 00:06:18;;;;;;;;;;;;;;;6.81;31.29;101933.28;4444099;32;19993;-71
2022/03/22 00:08:45;;;;;;;;;;;;;;;6.70;31.95;101934.25;4444643;32;19985;-70
2022/03/22 00:11:13;;;;;;;;;;;;;;;6.72;31.98;101936.16;4444900;32;20791;-71
2022/03/22 00:13:40;;;;;;;;;;;;;;;6.52;32.05;101931.37;4459832;32;20309;-71
2022/03/22 00:16:07;;;;;;;;;;;;;;;6.44;31.27;101929.97;4458449;32;20008;-71
2022/03/22 00:18:55;;;;;;;;;;;;;;;6.56;31.52;101935.06;4459777;32;19996;-71
2022/03/22 00:21:21;;;;;;;;;;;;;;;6.60;30.74;101929.31;4458795;32;19985;-71
2022/03/22 00:23:48;;;;;;;;;;;;;;;6.72;30.58;101924.97;4459681;32;19995;-71
2022/03/22 00:26:15;;;;;;;;;;;;;;;6.74;31.37;101923.41;4459970;32;19977;-71
2022/03/22 00:28:42;;;;;;;;;;;;;;;6.68;31.74;101928.13;4458322;32;20259;-71
2022/03/22 00:31:08;;;;;;;;;;;;;;;6.57;31.89;101923.94;4459377;32;19984;-71
2022/03/22 00:33:36;;;;;;;;;;;;;;;6.60;31.56;101924.16;4460108;32;20373;-72
2022/03/22 00:36:03;;;;;;;;;;;;;;;6.61;31.64;101928.53;4458954;32;20012;-72
2022/03/22 00:38:29;;;;;;;;;;;;;;;6.49;31.79;101928.59;4459683;32;19993;-71
2022/03/22 00:40:57;;;;;;;;;;;;;;;6.56;31.66;101923.06;4459723;32;19985;-72
2022/03/22 00:43:24;;;;;;;;;;;;;;;6.30;32.93;101923.91;4459529;32;19984;-71
2022/03/22 00:45:51;;;;;;;;;;;;;;;6.51;32.21;101925.34;4458672;32;20011;-71
2022/03/22 00:48:18;;;;;;;;;;;;;;;6.64;31.50;101923.59;4457608;32;20217;-71
2022/03/22 00:50:47;;;;;;;;;;;;;;;6.25;33.18;101931.34;4459353;32;20342;-71
2022/03/22 00:53:18;;;;;;;;;;;;;;;5.97;34.17;101923.44;4457513;32;19973;-71
2022/03/22 00:55:46;;;;;;;;;;;;;;;6.05;33.75;101927.41;4457822;32;20003;-71
2022/03/22 00:58:13;;;;;;;;;;;;;;;6.37;31.55;101920.06;4458868;32;19988;-72
2022/03/22 01:00:40;;;;;;;;;;;;;;;6.45;32.07;101924.06;4459214;32;19988;-72
2022/03/22 01:03:09;;;;;;;;;;;;;;;6.34;33.00;101920.75;4459723;32;20314;-72
2022/03/22 01:05:37;;;;;;;;;;;;;;;6.13;32.13;101920.22;4458637;32;20059;-72
2022/03/22 01:08:10;;;;;;;;;;;;;;;6.36;31.93;101919.19;4457907;32;20003;-71
2022/03/22 01:10:41;;;;;;;;;;;;;;;6.25;31.75;101920.12;4457119;32;20036;-71
2022/03/22 01:13:08;;;;;;;;;;;;;;;6.43;31.99;101918.78;4457493;32;20005;-71
2022/03/22 01:15:35;;;;;;;;;;;;;;;6.24;32.66;101918.37;4444566;32;20050;-72
2022/03/22 01:18:05;;;;;;;;;;;;;;;6.01;34.24;101920.28;4431463;32;19993;-72
2022/03/22 01:20:36;;;;;;;;;;;;;;;6.07;33.39;101913.78;4442923;32;19993;-72
2022/03/22 01:23:03;;;;;;;;;;;;;;;6.22;32.52;101909.66;4456531;32;20360;-73
2022/03/22 01:25:30;;;;;;;;;;;;;;;6.12;32.31;101917.53;4458994;32;19989;-72
2022/03/22 01:27:57;;;;;;;;;;;;;;;6.03;32.76;101912.66;4458596;32;19996;-72
2022/03/22 01:30:25;;;;;;;;;;;;;;;6.25;32.48;101904.72;4457933;32;20408;-72
2022/03/22 01:32:52;;;;;;;;;;;;;;;6.19;32.87;101909.44;4458888;32;20103;-72
2022/03/22 01:35:22;;;;;;;;;;;;;;;6.30;31.81;101903.34;4458555;32;19989;-72
2022/03/22 01:37:49;;;;;;;;;;;;;;;6.30;32.09;101905.91;4432350;32;19993;-71
2022/03/22 01:40:17;;;;;;;;;;;;;;;6.38;32.14;101906.41;4443102;32;20001;-72
2022/03/22 01:42:44;;;;;;;;;;;;;;;6.27;32.18;101901.47;4443344;32;19993;-72
2022/03/22 01:45:11;;;;;;;;;;;;;;;5.98;33.17;101904.66;4442461;32;20000;-71
2022/03/22 01:47:44;;;;;;;;;;;;;;;6.10;33.02;101904.59;4442533;32;20023;-71
2022/03/22 01:50:12;;;;;;;;;;;;;;;6.05;33.13;101905.94;4441475;32;20352;-71
2022/03/22 01:52:43;;;;;;;;;;;;;;;6.04;33.67;101907.63;4428217;32;20000;-71
2022/03/22 01:55:11;;;;;;;;;;;;;;;6.14;34.06;101906.56;4428792;32;20038;-72
2022/03/22 01:57:38;;;;;;;;;;;;;;;6.08;33.15;101908.72;4409756;32;19989;-71
2022/03/22 02:00:06;;;;;;;;;;;;;;;5.97;33.29;101908.03;4429320;32;19989;-72
2022/03/22 02:08:12;;;;;;;;;;;;;;;5.84;35.29;101900.25;4444740;32;19997;-72
2022/03/22 02:10:39;;;;;;;;;;;;;;;5.85;33.73;101894.31;4444923;32;19985;-72
2022/03/22 02:13:06;;;;;;;;;;;;;;;5.92;33.54;101891.34;4445151;32;19995;-72
2022/03/22 02:15:33;;;;;;;;;;;;;;;5.86;34.28;101887.47;4445173;32;20069;-72
2022/03/22 02:18:00;;;;;;;;;;;;;;;5.90;33.77;101885.19;4445103;32;20042;-72
2022/03/22 02:20:28;;;;;;;;;;;;;;;5.95;33.93;101894.16;4443733;32;19977;-71
2022/03/22 02:22:55;;;;;;;;;;;;;;;5.57;33.95;101883.81;4444990;32;19991;-72
2022/03/22 02:25:22;;;;;;;;;;;;;;;5.83;33.27;101888.16;4443514;32;20298;-71
2022/03/22 02:27:52;;;;;;;;;;;;;;;5.58;34.44;101883.00;4445408;32;20388;-71
2022/03/22 02:30:20;;;;;;;;;;;;;;;5.94;33.78;101887.25;4444631;32;20030;-71
2022/03/22 02:32:51;;;;;;;;;;;;;;;5.78;34.51;101884.41;4442287;32;19985;-71
2022/03/22 02:35:18;;;;;;;;;;;;;;;5.85;34.04;101881.44;4443943;32;19993;-71
2022/03/22 02:37:46;;;;;;;;;;;;;;;5.90;34.25;101885.19;4443343;32;19995;-72
2022/03/22 02:40:14;;;;;;;;;;;;;;;5.90;34.16;101886.88;4445210;32;19985;-71
2022/03/22 02:42:44;;;;;;;;;;;;;;;5.76;34.48;101891.09;4444010;32;20006;-72
2022/03/22 02:45:11;;;;;;;;;;;;;;;5.82;34.23;101882.13;4443561;32;20043;-73
2022/03/22 02:47:39;;;;;;;;;;;;;;;5.59;33.75;101878.00;4444041;32;20392;-73
2022/03/22 02:50:07;;;;;;;;;;;;;;;5.78;33.74;101884.41;4444038;32;20376;-73
2022/03/22 02:52:35;;;;;;;;;;;;;;;5.95;33.92;101883.88;4443167;32;19989;-73
2022/03/22 02:55:03;;;;;;;;;;;;;;;5.75;33.85;101885.06;4443777;32;20000;-73
2022/03/22 02:57:30;;;;;;;;;;;;;;;5.58;34.00;101889.06;4444433;32;19978;-73
2022/03/22 02:59:56;;;;;;;;;;;;;;;5.69;34.13;101883.75;4443295;32;19989;-73
2022/03/22 03:02:26;;;;;;;;;;;;;;;5.67;33.70;101885.31;4444369;32;20854;-73
2022/03/22 03:04:53;;;;;;;;;;;;;;;5.82;33.76;101889.84;4433843;32;19989;-73
2022/03/22 03:07:20;;;;;;;;;;;;;;;5.75;34.67;101889.31;4444286;32;19981;-72
2022/03/22 03:09:48;;;;;;;;;;;;;;;5.64;34.80;101887.69;4444102;32;19985;-72
2022/03/22 03:12:15;;;;;;;;;;;;;;;5.65;34.47;101894.59;4441989;32;19987;-72
2022/03/22 03:14:43;;;;;;;;;;;;;;;5.65;33.70;101892.03;4444501;32;19981;-73
2022/03/22 03:17:13;;;;;;;;;;;;;;;5.66;34.10;101898.97;4443475;32;20004;-73
2022/03/22 03:19:40;;;;;;;;;;;;;;;5.67;34.67;101896.50;4444432;32;19989;-73
2022/03/22 03:22:07;;;;;;;;;;;;;;;5.70;34.06;101906.09;4444601;32;19980;-71
2022/03/22 03:24:35;;;;;;;;;;;;;;;5.53;34.15;101908.37;4444163;32;20004;-72
2022/03/22 03:27:02;;;;;;;;;;;;;;;5.51;34.24;101907.38;4443481;32;20019;-73
2022/03/22 03:29:29;;;;;;;;;;;;;;;5.66;34.17;101910.12;4455792;32;20398;-72
2022/03/22 03:31:56;;;;;;;;;;;;;;;5.65;34.10;101910.00;4444500;32;19977;-72
2022/03/22 03:34:22;;;;;;;;;;;;;;;5.56;33.86;101910.28;4455060;32;20405;-72
2022/03/22 03:36:49;;;;;;;;;;;;;;;5.64;34.11;101909.13;4444966;32;19985;-71
2022/03/22 03:39:16;;;;;;;;;;;;;;;5.56;34.63;101910.28;4442366;32;19977;-72
2022/03/22 03:42:00;;;;;;;;;;;;;;;5.60;34.55;101905.44;4444682;32;19985;-72
2022/03/22 03:47:13;;;;;;;;;;;;;;;5.41;34.67;101897.25;4442141;32;20006;-72
2022/03/22 03:49:44;;;;;;;;;;;;;;;5.43;34.54;101897.38;4443892;32;20003;-72
2022/03/22 03:52:15;;;;;;;;;;;;;;;5.37;33.82;101895.25;4444389;32;19985;-72
2022/03/22 03:54:42;;;;;;;;;;;;;;;5.25;34.91;101899.53;4442816;32;19986;-72
2022/03/22 03:57:09;;;;;;;;;;;;;;;5.20;34.96;101896.66;4444094;32;19989;-72
2022/03/22 03:59:37;;;;;;;;;;;;;;;5.25;35.02;101903.00;4440647;32;19989;-70
2022/03/22 04:02:06;;;;;;;;;;;;;;;5.09;35.95;101903.56;4430153;32;20349;-70
2022/03/22 04:04:35;;;;;;;;;;;;;;;5.42;35.44;101904.16;4429809;32;20000;-71
2022/03/22 04:07:02;;;;;;;;;;;;;;;5.20;36.11;101901.78;4445755;32;20000;-71
2022/03/22 04:09:29;;;;;;;;;;;;;;;5.10;36.45;101905.34;4459968;32;19990;-71
2022/03/22 04:11:56;;;;;;;;;;;;;;;5.08;35.60;101914.63;4456757;32;20377;-70
2022/03/22 04:14:23;;;;;;;;;;;;;;;5.13;35.41;101915.84;4439787;32;20038;-70
2022/03/22 04:16:50;;;;;;;;;;;;;;;5.25;35.20;101909.81;4444351;32;19993;-71
2022/03/22 04:19:17;;;;;;;;;;;;;;;5.13;35.64;101920.97;4444278;32;20016;-70
2022/03/22 04:21:45;;;;;;;;;;;;;;;5.09;35.80;101918.97;4444237;32;19991;-70
2022/03/22 04:24:11;;;;;;;;;;;;;;;5.09;35.53;101918.97;4439198;32;20487;-72
2022/03/22 04:26:40;;;;;;;;;;;;;;;5.00;35.26;101922.56;4427210;32;20012;-71
2022/03/22 04:34:39;;;;;;;;;;;;;;;5.09;35.56;101929.25;4434914;32;19993;-71
2022/03/22 04:37:07;;;;;;;;;;;;;;;5.12;35.00;101932.03;4425871;32;19989;-71
2022/03/22 04:39:33;;;;;;;;;;;;;;;5.00;35.83;101935.41;4442566;32;20008;-74
2022/03/22 04:42:02;;;;;;;;;;;;;;;5.08;35.61;101932.59;4442583;32;20402;-71
2022/03/22 04:44:29;;;;;;;;;;;;;;;4.92;35.73;101933.97;4443960;32;20073;-77
2022/03/22 04:46:56;;;;;;;;;;;;;;;4.95;36.26;101935.06;4442770;32;19985;-78
2022/03/22 04:49:23;;;;;;;;;;;;;;;4.87;35.79;101936.19;4443525;32;20748;-81
2022/03/22 04:57:22;;;;;;;;;;;;;;;4.81;35.69;101940.88;4443415;32;19990;-73
2022/03/22 04:59:49;;;;;;;;;;;;;;;4.86;35.58;101939.53;4443987;32;20003;-74
2022/03/22 05:02:16;;;;;;;;;;;;;;;4.99;35.32;101937.06;4443542;32;19969;-75
2022/03/22 05:04:43;;;;;;;;;;;;;;;5.11;35.85;101937.06;4136798;32;10001015;-78
2022/03/22 05:07:10;;;;;;;;;;;;;;;4.97;36.22;101938.63;4442916;32;20052;-78
2022/03/22 05:09:37;;;;;;;;;;;;;;;5.13;35.11;101941.50;4443939;32;19993;-73
2022/03/22 05:12:04;;;;;;;;;;;;;;;5.15;35.28;101943.31;4443168;32;19985;-74
2022/03/22 05:14:32;;;;;;;;;;;;;;;5.07;35.87;101940.19;4443183;32;19991;-75
2022/03/22 05:16:58;;;;;;;;;;;;;;;5.30;35.84;101944.41;4443299;32;20744;-73
2022/03/22 05:19:26;;;;;;;;;;;;;;;5.27;35.82;101941.63;4443722;32;20368;-73
2022/03/22 05:21:53;;;;;;;;;;;;;;;5.45;35.98;101945.47;4443216;32;20378;-76
2022/03/22 05:24:20;;;;;;;;;;;;;;;5.37;36.32;101938.91;4443514;32;20467;-72
2022/03/22 05:26:47;;;;;;;;;;;;;;;5.43;36.58;101947.06;4443424;32;20357;-68
2022/03/22 05:29:13;;;;;;;;;;;;;;;5.33;37.13;101949.78;4443270;32;20004;-68
2022/03/22 05:31:40;;;;;;;;;;;;;;;5.46;36.57;101947.28;4442868;32;19989;-72
2022/03/22 05:34:07;;;;;;;;;;;;;;;5.32;37.87;101947.97;4443559;32;20191;-68
2022/03/22 05:36:34;;;;;;;;;;;;;;;5.47;36.39;101949.06;4445402;32;20020;-70
2022/03/22 05:39:01;;;;;;;;;;;;;;;5.40;38.66;101944.28;4445389;32;19989;-68
2022/03/22 05:41:28;;;;;;;;;;;;;;;5.44;38.20;101941.13;4443633;32;20001;-67
2022/03/22 05:43:55;;;;;;;;;;;;;;;5.60;37.59;101945.66;4445335;32;20034;-68
2022/03/22 05:46:22;;;;;;;;;;;;;;;5.96;36.96;101947.34;4443627;32;20349;-68
2022/03/22 05:48:50;;;;;;;;;;;;;;;5.94;37.11;101948.94;4444325;32;19992;-68
2022/03/22 05:51:17;;;;;;;;;;;;;;;6.24;35.89;101949.22;4445448;32;20724;-68
2022/03/22 05:53:44;;;;;;;;;;;;;;;6.40;35.20;101948.56;4444131;32;19985;-69
2022/03/22 05:56:11;;;;;;;;;;;;;;;6.75;35.45;101950.91;4444908;32;20012;-68
2022/03/22 05:58:38;;;;;;;;;;;;;;;7.14;35.26;101946.53;4442596;32;19988;-67
2022/03/22 06:01:06;;;;;;;;;;;;;;;7.39;35.48;101955.03;4443918;32;19980;-68
2022/03/22 06:03:33;;;;;;;;;;;;;;;7.45;34.67;101955.41;4443668;32;20000;-68
2022/03/22 06:06:00;;;;;;;;;;;;;;;7.56;35.10;101950.94;4445075;32;20042;-69
2022/03/22 06:08:29;;;;;;;;;;;;;;;7.81;35.56;101955.91;4443281;32;19977;-68
2022/03/22 06:10:56;;;;;;;;;;;;;;;7.96;34.70;101955.06;4443652;32;20403;-71
2022/03/22 06:13:23;;;;;;;;;;;;;;;8.15;34.28;101957.94;4441961;32;19984;-68
2022/03/22 06:15:50;;;;;;;;;;;;;;;8.07;34.50;101952.34;4444388;32;20004;-74
2022/03/22 06:18:18;;;;;;;;;;;;;;;8.09;35.30;101957.59;4445170;32;20041;-74
2022/03/22 06:20:44;;;;;;;;;;;;;;;8.15;33.60;101956.25;4442794;32;20041;-73
2022/03/22 06:23:12;;;;;;;;;;;;;;;8.30;33.47;101958.87;4445536;32;20044;-70
2022/03/22 06:25:39;;;;;;;;;;;;;;;8.37;33.04;101950.69;4443898;32;19981;-70
2022/03/22 06:28:06;;;;;;;;;;;;;;;8.54;31.93;101958.56;4442673;32;20004;-69
2022/03/22 06:30:34;;;;;;;;;;;;;;;8.59;31.84;101957.12;4444063;32;20036;-68
2022/03/22 06:33:07;;;;;;;;;;;;;;;8.77;31.80;101958.19;4442436;32;19989;-70
2022/03/22 06:35:34;;;;;;;;;;;;;;;8.82;31.41;101967.09;4430648;32;20497;-68
2022/03/22 06:38:01;;;;;;;;;;;;;;;9.05;31.88;101959.75;4444009;32;20007;-67
2022/03/22 06:40:29;;;;;;;;;;;;;;;9.22;30.90;101963.28;4443785;32;20042;-67
2022/03/22 06:42:56;;;;;;;;;;;;;;;9.50;29.97;101960.53;4430736;32;20118;-67
2022/03/22 06:45:24;;;;;;;;;;;;;;;9.73;28.69;101965.25;4447228;32;19981;-68
2022/03/22 06:47:51;;;;;;;;;;;;;;;10.06;27.17;101960.09;4440188;32;20811;-67
2022/03/22 06:50:18;;;;;;;;;;;;;;;10.39;27.33;101965.25;4443914;32;19986;-67
2022/03/22 06:52:46;;;;;;;;;;;;;;;10.73;26.44;101956.59;4444054;32;19981;-67
2022/03/22 06:55:13;;;;;;;;;;;;;;;11.08;25.92;101951.41;4444610;32;20011;-68
2022/03/22 06:57:40;;;;;;;;;;;;;;;11.52;25.75;101955.22;4441656;32;19997;-69
2022/03/22 07:00:11;;;;;;;;;;;;;;;11.92;24.93;101956.16;4440850;32;20007;-68
2022/03/22 07:02:39;;;;;;;;;;;;;;;12.34;25.26;101951.94;4429700;32;19989;-67
2022/03/22 07:05:07;;;;;;;;;;;;;;;12.70;24.10;101957.81;4444096;32;20820;-68
2022/03/22 07:07:35;;;;;;;;;;;;;;;13.14;24.09;101955.22;4444535;32;20050;-68
2022/03/22 07:10:03;;;;;;;;;;;;;;;13.57;23.17;101951.72;4428058;32;20004;-68
2022/03/22 07:12:30;;;;;;;;;;;;;;;14.10;22.42;101950.19;4440230;32;19988;-70
2022/03/22 07:14:57;;;;;;;;;;;;;;;14.50;21.94;101946.38;4435731;32;20028;-68
2022/03/22 07:17:23;;;;;;;;;;;;;;;14.79;21.43;101944.75;4443576;32;20306;-69
2022/03/22 07:19:53;;;;;;;;;;;;;;;15.13;20.85;101946.75;4427873;32;19989;-68
2022/03/22 07:22:19;;;;;;;;;;;;;;;15.48;20.56;101944.31;4442434;32;20713;-68
2022/03/22 07:24:46;;;;;;;;;;;;;;;15.85;19.91;101950.62;4444190;32;20005;-67
2022/03/22 07:27:13;;;;;;;;;;;;;;;16.06;20.16;101940.78;4439467;32;20001;-72
2022/03/22 07:29:40;;;;;;;;;;;;;;;16.39;19.31;101939.91;4428969;32;20311;-74
2022/03/22 07:32:07;;;;;;;;;;;;;;;16.68;18.45;101941.53;4443396;32;20865;-71
2022/03/22 07:34:34;;;;;;;;;;;;;;;17.05;18.43;101950.31;4444416;32;19993;-73
2022/03/22 07:37:00;;;;;;;;;;;;;;;17.26;17.89;101951.63;4443377;32;20050;-73
2022/03/22 07:39:29;;;;;;;;;;;;;;;17.33;17.20;101945.69;4443831;32;19981;-69
2022/03/22 07:41:58;;;;;;;;;;;;;;;17.69;17.58;101949.97;4453790;32;19980;-74
2022/03/22 07:44:27;;;;;;;;;;;;;;;17.98;17.38;101943.59;4440159;32;20012;-69
2022/03/22 07:46:53;;;;;;;;;;;;;;;18.25;16.68;101950.19;4428982;32;19993;-69
2022/03/22 07:54:52;;;;;;;;;;;;;;;18.70;15.92;101939.66;4442907;32;20349;-69
2022/03/22 07:57:19;;;;;;;;;;;;;;;18.36;15.75;101946.03;4443420;32;19984;-72
2022/03/22 07:59:46;;;;;;;;;;;;;;;18.64;16.06;101942.16;4444284;32;19981;-69
2022/03/22 08:02:13;;;;;;;;;;;;;;;18.66;16.43;101944.78;4442889;32;20318;-69
2022/03/22 08:04:40;;;;;;;;;;;;;;;18.96;16.16;101945.34;4443954;32;20035;-69
2022/03/22 08:07:07;;;;;;;;;;;;;;;19.17;14.90;101949.13;4455602;32;19993;-70
2022/03/22 08:09:35;;;;;;;;;;;;;;;19.10;15.48;101947.28;4443734;32;20000;-69
2022/03/22 08:12:02;;;;;;;;;;;;;;;19.47;15.03;101936.44;4453768;32;19977;-71
2022/03/22 08:14:29;;;;;;;;;;;;;;;19.47;14.73;101941.69;4443828;32;20812;-70
2022/03/22 08:16:55;;;;;;;;;;;;;;;19.51;14.66;101938.22;4443288;32;20034;-69
2022/03/22 08:19:24;;;;;;;;;;;;;;;19.04;15.53;101938.44;4438974;32;20142;-75
2022/03/22 08:21:51;;;;;;;;;;;;;;;19.44;15.20;101933.75;4438187;32;19992;-75
2022/03/22 08:24:18;;;;;;;;;;;;;;;19.38;14.72;101928.44;4450321;32;20328;-70
2022/03/22 08:26:45;;;;;;;;;;;;;;;19.21;14.81;101929.97;4437651;32;20016;-75
2022/03/22 08:29:12;;;;;;;;;;;;;;;19.36;15.59;101935.37;4438776;32;20001;-72
2022/03/22 08:31:43;;;;;;;;;;;;;;;19.17;14.79;101933.38;4430940;32;20045;-68
2022/03/22 08:34:10;;;;;;;;;;;;;;;19.05;15.21;101927.09;4441949;32;19981;-70
2022/03/22 08:36:37;;;;;;;;;;;;;;;19.21;15.72;101924.69;4443992;32;20068;-69
2022/03/22 08:39:03;;;;;;;;;;;;;;;18.90;15.44;101928.63;4443265;32;20471;-68
2022/03/22 08:41:31;;;;;;;;;;;;;;;19.63;15.06;101923.50;4443326;32;20381;-68
2022/03/22 08:43:57;;;;;;;;;;;;;;;19.17;15.49;101938.63;4443265;32;20015;-68
2022/03/22 08:46:24;;;;;;;;;;;;;;;19.62;14.50;101922.63;4444106;32;20009;-68
2022/03/22 08:48:52;;;;;;;;;;;;;;;19.77;14.94;101921.94;4428690;32;20034;-68
2022/03/22 08:51:20;;;;;;;;;;;;;;;19.68;14.31;101919.19;4442733;32;19977;-68
2022/03/22 08:53:47;;;;;;;;;;;;;;;19.63;14.89;101918.25;4444140;32;20001;-69
2022/03/22 08:56:15;;;;;;;;;;;;;;;20.14;14.11;101911.84;4441784;32;19977;-68
2022/03/22 08:58:42;;;;;;;;;;;;;;;19.71;14.76;101911.34;4443969;32;19982;-68
2022/03/22 09:01:08;;;;;;;;;;;;;;;19.82;14.93;101904.47;4443378;32;19984;-68
2022/03/22 09:03:38;;;;;;;;;;;;;;;20.04;14.09;101904.69;3974687;32;9999677;-69
2022/03/22 09:06:08;;;;;;;;;;;;;;;19.95;13.83;101906.38;4443960;32;19981;-68
2022/03/22 09:08:35;;;;;;;;;;;;;;;19.90;14.76;101902.81;4443728;32;20044;-69
2022/03/22 09:11:02;;;;;;;;;;;;;;;19.59;14.89;101898.03;4444844;32;20759;-69
2022/03/22 09:13:35;;;;;;;;;;;;;;;19.89;14.12;101898.41;4445922;32;20376;-68
2022/03/22 09:16:12;;;;;;;;;;;;;;;19.93;15.40;101900.22;4440413;32;19993;-72
2022/03/22 09:18:43;;;;;;;;;;;;;;;20.12;13.83;101897.78;4442604;32;19993;-70
2022/03/22 09:21:10;;;;;;;;;;;;;;;20.16;14.42;101894.31;4444060;32;20083;-69
2022/03/22 09:23:40;;;;;;;;;;;;;;;20.24;13.99;101892.62;4445392;32;20572;-69
2022/03/22 09:26:07;;;;;;;;;;;;;;;20.51;13.76;101896.38;4444308;32;19989;-69
2022/03/22 09:28:34;;;;;;;;;;;;;;;19.94;15.05;101888.84;4445846;32;19985;-69
2022/03/22 09:31:06;;;;;;;;;;;;;;;19.92;14.85;101887.94;4440182;32;20045;-69
2022/03/22 09:33:33;;;;;;;;;;;;;;;20.02;15.05;101880.16;4444364;32;20003;-69
2022/03/22 09:36:01;;;;;;;;;;;;;;;20.35;14.70;101879.56;4445198;32;20701;-69
2022/03/22 09:38:28;;;;;;;;;;;;;;;20.28;14.02;101878.63;4430017;32;19996;-70
2022/03/22 09:40:55;;;;;;;;;;;;;;;20.40;14.07;101870.84;4445378;32;19973;-69
2022/03/22 09:43:24;;;;;;;;;;;;;;;20.67;13.72;101883.34;4444555;32;19973;-69
2022/03/22 09:45:51;;;;;;;;;;;;;;;20.83;13.32;101881.72;4444704;32;19997;-69
2022/03/22 09:48:18;;;;;;;;;;;;;;;20.53;13.34;101873.63;4439797;32;20030;-69
2022/03/22 09:53:30;;;;;;;;;;;;;;;20.99;13.48;101873.91;4444532;32;19977;-69
2022/03/22 09:55:57;;;;;;;;;;;;;;;20.17;13.94;101872.41;4442497;32;19999;-70
2022/03/22 09:58:24;;;;;;;;;;;;;;;20.59;13.71;101864.03;4444159;32;20333;-69
2022/03/22 10:00:51;;;;;;;;;;;;;;;20.67;13.31;101867.56;4445063;32;19981;-69
2022/03/22 10:03:19;;;;;;;;;;;;;;;20.61;13.42;101866.66;4444869;32;19984;-69
2022/03/22 10:05:57;;;;;;;;;;;;;;;20.63;13.57;101864.91;4445204;32;19989;-69
2022/03/22 10:08:25;;;;;;;;;;;;;;;20.80;13.11;101852.75;4445289;32;19995;-70
2022/03/22 10:10:52;;;;;;;;;;;;;;;20.19;13.54;101852.25;4444918;32;20699;-70
2022/03/22 10:13:19;;;;;;;;;;;;;;;20.59;14.37;101852.62;4442806;32;19984;-75
2022/03/22 10:15:47;;;;;;;;;;;;;;;20.58;13.62;101856.09;4444264;32;19981;-71
2022/03/22 10:18:13;;;;;;;;;;;;;;;20.54;13.33;101851.69;4443530;32;19997;-76
2022/03/22 10:20:40;;;;;;;;;;;;;;;20.34;14.23;101852.38;4444493;32;20007;-75
2022/03/22 10:23:09;;;;;;;;;;;;;;;20.15;13.55;101845.22;4445457;32;20336;-71
2022/03/22 10:25:40;;;;;;;;;;;;;;;20.54;13.77;101844.66;4445217;32;19993;-69
2022/03/22 10:28:07;;;;;;;;;;;;;;;20.70;14.33;101840.41;4444477;32;19993;-70
2022/03/22 10:30:35;;;;;;;;;;;;;;;20.36;14.10;101840.13;4443563;32;19981;-69
2022/03/22 10:33:02;;;;;;;;;;;;;;;20.16;14.62;101836.44;4445489;32;19992;-69
2022/03/22 10:35:30;;;;;;;;;;;;;;;20.62;14.47;101826.31;4444365;32;19989;-69
2022/03/22 10:37:58;;;;;;;;;;;;;;;20.56;14.76;101836.81;4443495;32;19985;-70
2022/03/22 10:40:35;;;;;;;;;;;;;;;20.54;13.93;101834.16;4442467;32;19981;-70
2022/03/22 10:43:03;;;;;;;;;;;;;;;20.76;14.75;101829.91;4445036;32;19999;-69
2022/03/22 10:45:39;;;;;;;;;;;;;;;20.89;13.93;101831.72;4443732;32;19985;-70
2022/03/22 10:48:06;;;;;;;;;;;;;;;20.96;13.22;101826.50;4443505;32;19993;-69
2022/03/22 10:50:37;;;;;;;;;;;;;;;20.38;13.65;101817.34;4443008;32;20008;-71
2022/03/22 10:53:04;;;;;;;;;;;;;;;20.69;15.05;101817.59;4445025;32;19992;-74
2022/03/22 10:55:31;;;;;;;;;;;;;;;20.73;14.65;101816.72;4445120;32;20700;-73
2022/03/22 10:57:58;;;;;;;;;;;;;;;20.94;14.59;101807.22;4444594;32;19977;-74
2022/03/22 11:00:25;;;;;;;;;;;;;;;20.68;14.88;101805.31;4444895;32;20337;-70
2022/03/22 11:02:55;;;;;;;;;;;;;;;21.10;13.12;101803.78;4448950;32;20900;-70
2022/03/22 11:05:23;;;;;;;;;;;;;;;21.14;13.76;101795.00;4445482;32;19981;-74
2022/03/22 11:07:51;;;;;;;;;;;;;;;20.79;15.57;101792.19;4444730;32;21387;-70
2022/03/22 11:10:31;;;;;;;;;;;;;;;21.31;14.26;101788.06;4442743;32;20329;-73
2022/03/22 11:12:58;;;;;;;;;;;;;;;21.73;13.25;101781.12;4447625;32;19991;-69
2022/03/22 11:15:30;;;;;;;;;;;;;;;20.80;16.58;101786.94;4454733;32;19974;-70
2022/03/22 11:17:56;;;;;;;;;;;;;;;20.84;16.61;101791.38;4443735;32;19992;-70
2022/03/22 11:20:24;;;;;;;;;;;;;;;21.55;14.20;101781.09;4444721;32;20355;-70
2022/03/22 11:22:54;;;;;;;;;;;;;;;21.88;13.13;101779.37;4430579;32;20007;-70
2022/03/22 11:25:32;;;;;;;;;;;;;;;22.17;12.29;101771.50;4444743;32;19984;-70
2022/03/22 11:28:05;;;;;;;;;;;;;;;22.18;12.08;101763.59;4444476;32;19993;-71
2022/03/22 11:30:33;;;;;;;;;;;;;;;21.78;15.43;101768.81;4444939;32;19989;-70
2022/03/22 11:35:46;;;;;;;;;;;;;;;21.24;14.01;101762.53;4444908;32;19994;-70
2022/03/22 11:38:13;;;;;;;;;;;;;;;21.80;13.82;101753.91;4429616;32;20000;-70
2022/03/22 11:43:42;;;;;;;;;;;;;;;22.11;12.81;101745.94;4447717;32;20048;-70
2022/03/22 11:46:09;;;;;;;;;;;;;;;22.59;12.81;101744.16;4444548;32;19985;-75
2022/03/22 11:48:38;;;;;;;;;;;;;;;22.63;12.35;101735.34;4448769;32;19977;-71
2022/03/22 11:51:08;;;;;;;;;;;;;;;22.67;12.77;101737.06;4450692;32;19992;-71
2022/03/22 11:53:42;;;;;;;;;;;;;;;21.88;15.30;101743.34;4432634;32;19989;-70
2022/03/22 11:56:09;;;;;;;;;;;;;;;22.08;14.05;101735.44;4444617;32;19992;-70
2022/03/22 11:58:36;;;;;;;;;;;;;;;22.28;13.91;101733.66;4444709;32;20030;-70
2022/03/22 12:01:22;;;;;;;;;;;;;;;22.64;12.60;101726.53;4454742;32;20060;-70
2022/03/22 12:03:53;;;;;;;;;;;;;;;21.97;15.56;101731.91;4459625;32;19996;-70
2022/03/22 12:06:21;;;;;;;;;;;;;;;21.63;15.31;101723.12;4460460;32;19984;-70
2022/03/22 12:08:47;;;;;;;;;;;;;;;21.70;14.75;101717.87;4431950;32;20255;-70
2022/03/22 12:11:16;;;;;;;;;;;;;;;22.01;12.62;101717.84;4456446;32;19993;-69
2022/03/22 12:13:44;;;;;;;;;;;;;;;22.33;12.43;101709.03;4445618;32;19981;-70
2022/03/22 12:16:11;;;;;;;;;;;;;;;22.28;14.21;101707.28;4458385;32;19984;-70
2022/03/22 12:18:39;;;;;;;;;;;;;;;21.62;14.86;101697.66;4458322;32;20494;-72
2022/03/22 12:21:15;;;;;;;;;;;;;;;21.59;14.37;101701.16;4458029;32;20001;-71
2022/03/22 12:23:43;;;;;;;;;;;;;;;22.21;13.63;101705.53;4459786;32;19976;-71
2022/03/22 12:26:10;;;;;;;;;;;;;;;21.87;13.37;101691.50;4458387;32;20343;-70
2022/03/22 12:28:50;;;;;;;;;;;;;;;22.62;12.15;101685.16;4460176;32;19989;-71
2022/03/22 12:31:21;;;;;;;;;;;;;;;22.61;12.44;101679.03;4431927;32;20864;-78
2022/03/22 12:33:50;;;;;;;;;;;;;;;22.65;11.92;101675.47;4458266;32;20049;-70
2022/03/22 12:36:19;;;;;;;;;;;;;;;22.37;12.66;101668.56;4458813;32;19985;-78
2022/03/22 12:38:46;;;;;;;;;;;;;;;22.00;12.44;101665.97;4458239;32;20022;-69
2022/03/22 12:41:12;;;;;;;;;;;;;;;22.37;13.51;101656.25;4459885;32;20025;-69
2022/03/22 12:43:45;;;;;;;;;;;;;;;22.63;13.59;101650.87;4457654;32;19985;-69
2022/03/22 12:46:14;;;;;;;;;;;;;;;22.74;13.11;101648.16;4459279;32;19985;-69
2022/03/22 12:48:41;;;;;;;;;;;;;;;22.53;12.57;101646.53;4453984;32;20004;-69
2022/03/22 12:51:08;;;;;;;;;;;;;;;22.23;12.44;101645.72;4456091;32;19988;-68
2022/03/22 12:53:37;;;;;;;;;;;;;;;21.73;13.80;101646.69;4459362;32;19986;-69
2022/03/22 12:56:14;;;;;;;;;;;;;;;21.47;13.75;101636.13;4442586;32;20304;-72
2022/03/22 12:58:41;;;;;;;;;;;;;;;21.94;12.98;101634.34;4443625;32;20084;-72
2022/03/22 13:01:08;;;;;;;;;;;;;;;21.92;13.11;101633.47;4452934;32;19988;-71
2022/03/22 13:03:38;;;;;;;;;;;;;;;22.17;13.14;101624.62;4459353;32;19976;-76
2022/03/22 13:06:06;;;;;;;;;;;;;;;22.22;13.04;101622.88;4458665;32;20011;-76
2022/03/22 13:11:29;;;;;;;;;;;;;;;22.45;12.73;101614.00;4436491;32;20016;-72
2022/03/22 13:16:56;;;;;;;;;;;;;;;22.31;14.31;101610.56;4442772;32;20330;-73
2022/03/22 13:19:23;;;;;;;;;;;;;;;21.61;14.97;101599.25;4436356;32;19989;-79
2022/03/22 13:21:51;;;;;;;;;;;;;;;21.55;14.32;101605.41;4438990;32;20044;-75
2022/03/22 13:24:21;;;;;;;;;;;;;;;21.71;14.91;101595.72;4440413;32;19985;-77